sensor_id;sensor_type;location;lat;lon;timestamp;temperature;humidity
34985;DHT22;21190;58.750;17.004;2023-02-23T00:01:53;0.50;99.90
34985;DHT22;21190;58.750;17.004;2023-02-23T00:04:20;0.50;99.90
34985;DHT22;21190;58.750;17.004;2023-02-23T00:06:49;0.60;99.90
34985;DHT22;21190;58.750;17.004;2023-02-23T00:09:19;0.50;99.90
34985;DHT22;21190;58.750;17.004;2023-02-23T00:11:52;0.50;99.90
34985;DHT22;21190;58.750;17.004;2023-02-23T00:14:20;0.60;99.90
34985;DHT22;21190;58.750;17.004;2023-02-23T00:16:50;0.50;99.90
34985;DHT22;21190;58.750;17.004;2023-02-23T00:19:17;0.50;99.90
34985;DHT22;21190;58.750;17.004;2023-02-23T00:21:44;0.50;99.90
34985;DHT22;21190;58.750;17.004;2023-02-23T00:24:12;0.50;99.90
34985;DHT22;21190;58.750;17.004;2023-02-23T00:26:41;0.40;99.90
34985;DHT22;21190;58.750;17.004;2023-02-23T00:29:12;0.50;99.90
34985;DHT22;21190;58.750;17.004;2023-02-23T00:31:43;0.50;99.90
34985;DHT22;21190;58.750;17.004;2023-02-23T00:34:12;0.50;99.90
34985;DHT22;21190;58.750;17.004;2023-02-23T00:36:40;0.40;99.90
34985;DHT22;21190;58.750;17.004;2023-02-23T00:39:10;0.50;99.90
34985;DHT22;21190;58.750;17.004;2023-02-23T00:41:58;0.40;99.90
34985;DHT22;21190;58.750;17.004;2023-02-23T00:44:29;0.60;99.90
34985;DHT22;21190;58.750;17.004;2023-02-23T00:46:58;0.50;99.90
34985;DHT22;21190;58.750;17.004;2023-02-23T00:49:25;0.50;99.90
34985;DHT22;21190;58.750;17.004;2023-02-23T00:51:53;0.50;99.90
34985;DHT22;21190;58.750;17.004;2023-02-23T00:54:20;0.50;99.90
34985;DHT22;21190;58.750;17.004;2023-02-23T00:56:48;0.40;99.90
34985;DHT22;21190;58.750;17.004;2023-02-23T00:59:16;0.30;99.90
34985;DHT22;21190;58.750;17.004;2023-02-23T01:01:43;0.30;99.90
34985;DHT22;21190;58.750;17.004;2023-02-23T01:04:11;0.30;99.90
34985;DHT22;21190;58.750;17.004;2023-02-23T01:06:40;0.20;99.90
34985;DHT22;21190;58.750;17.004;2023-02-23T01:09:10;0.10;99.90
34985;DHT22;21190;58.750;17.004;2023-02-23T01:11:37;0.10;99.90
34985;DHT22;21190;58.750;17.004;2023-02-23T01:14:04;0.20;99.90
34985;DHT22;21190;58.750;17.004;2023-02-23T01:16:33;0.30;99.90
34985;DHT22;21190;58.750;17.004;2023-02-23T01:19:03;0.30;99.90
34985;DHT22;21190;58.750;17.004;2023-02-23T01:21:35;0.30;99.90
34985;DHT22;21190;58.750;17.004;2023-02-23T01:24:03;0.30;99.90
34985;DHT22;21190;58.750;17.004;2023-02-23T01:26:33;0.30;99.90
34985;DHT22;21190;58.750;17.004;2023-02-23T01:29:07;0.30;99.90
34985;DHT22;21190;58.750;17.004;2023-02-23T01:31:37;0.30;99.90
34985;DHT22;21190;58.750;17.004;2023-02-23T01:34:06;0.30;99.90
34985;DHT22;21190;58.750;17.004;2023-02-23T01:36:35;0.30;99.90
34985;DHT22;21190;58.750;17.004;2023-02-23T01:39:04;0.40;99.90
34985;DHT22;21190;58.750;17.004;2023-02-23T01:41:34;0.40;99.90
34985;DHT22;21190;58.750;17.004;2023-02-23T01:44:05;0.40;99.90
34985;DHT22;21190;58.750;17.004;2023-02-23T01:46:34;0.40;99.90
34985;DHT22;21190;58.750;17.004;2023-02-23T01:49:02;0.40;99.90
34985;DHT22;21190;58.750;17.004;2023-02-23T01:51:33;0.40;99.90
34985;DHT22;21190;58.750;17.004;2023-02-23T01:54:09;0.30;99.90
34985;DHT22;21190;58.750;17.004;2023-02-23T01:56:43;0.30;99.90
34985;DHT22;21190;58.750;17.004;2023-02-23T01:59:12;0.20;99.90
34985;DHT22;21190;58.750;17.004;2023-02-23T02:01:41;0.30;99.90
34985;DHT22;21190;58.750;17.004;2023-02-23T02:04:10;0.30;99.90
34985;DHT22;21190;58.750;17.004;2023-02-23T02:06:44;0.20;99.90
34985;DHT22;21190;58.750;17.004;2023-02-23T02:09:15;0.20;99.90
34985;DHT22;21190;58.750;17.004;2023-02-23T02:11:43;0.30;99.90
34985;DHT22;21190;58.750;17.004;2023-02-23T02:14:23;0.10;99.90
34985;DHT22;21190;58.750;17.004;2023-02-23T02:17:17;0.10;99.90
34985;DHT22;21190;58.750;17.004;2023-02-23T02:30:44;0.00;99.90
34985;DHT22;21190;58.750;17.004;2023-02-23T02:36:40;0.00;99.90
34985;DHT22;21190;58.750;17.004;2023-02-23T02:39:18;0.00;99.90
34985;DHT22;21190;58.750;17.004;2023-02-23T02:42:14;-0.10;99.90
34985;DHT22;21190;58.750;17.004;2023-02-23T02:50:16;0.10;99.90
34985;DHT22;21190;58.750;17.004;2023-02-23T02:52:54;0.10;99.90
34985;DHT22;21190;58.750;17.004;2023-02-23T02:55:26;0.10;99.90
34985;DHT22;21190;58.750;17.004;2023-02-23T02:57:57;0.10;99.90
34985;DHT22;21190;58.750;17.004;2023-02-23T03:00:44;0.10;99.90
34985;DHT22;21190;58.750;17.004;2023-02-23T03:03:42;0.10;99.90
34985;DHT22;21190;58.750;17.004;2023-02-23T03:06:36;0.10;99.90
34985;DHT22;21190;58.750;17.004;2023-02-23T03:09:41;0.20;99.90
34985;DHT22;21190;58.750;17.004;2023-02-23T03:15:40;0.10;99.90
34985;DHT22;21190;58.750;17.004;2023-02-23T03:21:34;0.20;99.90
34985;DHT22;21190;58.750;17.004;2023-02-23T03:27:43;0.20;99.90
34985;DHT22;21190;58.750;17.004;2023-02-23T03:30:54;0.20;99.90
34985;DHT22;21190;58.750;17.004;2023-02-23T03:34:13;0.20;99.90
34985;DHT22;21190;58.750;17.004;2023-02-23T03:40:19;0.20;99.90
34985;DHT22;21190;58.750;17.004;2023-02-23T03:43:19;0.20;99.90
34985;DHT22;21190;58.750;17.004;2023-02-23T03:46:09;0.20;99.90
34985;DHT22;21190;58.750;17.004;2023-02-23T03:48:59;0.20;99.90
34985;DHT22;21190;58.750;17.004;2023-02-23T03:51:49;0.30;99.90
34985;DHT22;21190;58.750;17.004;2023-02-23T03:54:52;0.20;99.90
34985;DHT22;21190;58.750;17.004;2023-02-23T03:57:40;0.20;99.90
34985;DHT22;21190;58.750;17.004;2023-02-23T04:00:31;0.10;99.90
34985;DHT22;21190;58.750;17.004;2023-02-23T04:03:19;0.20;99.90
34985;DHT22;21190;58.750;17.004;2023-02-23T04:06:08;0.20;99.90
34985;DHT22;21190;58.750;17.004;2023-02-23T04:08:58;0.10;99.90
34985;DHT22;21190;58.750;17.004;2023-02-23T04:11:57;0.10;99.90
34985;DHT22;21190;58.750;17.004;2023-02-23T04:17:45;0.20;99.90
34985;DHT22;21190;58.750;17.004;2023-02-23T04:20:13;0.10;99.90
34985;DHT22;21190;58.750;17.004;2023-02-23T04:22:40;0.20;99.90
34985;DHT22;21190;58.750;17.004;2023-02-23T04:25:07;0.10;99.90
34985;DHT22;21190;58.750;17.004;2023-02-23T04:27:35;0.10;99.90
34985;DHT22;21190;58.750;17.004;2023-02-23T04:30:03;0.00;99.90
34985;DHT22;21190;58.750;17.004;2023-02-23T04:32:31;0.00;99.90
34985;DHT22;21190;58.750;17.004;2023-02-23T04:34:58;-0.10;99.90
34985;DHT22;21190;58.750;17.004;2023-02-23T04:37:25;-0.10;99.90
34985;DHT22;21190;58.750;17.004;2023-02-23T04:39:52;-0.10;99.90
34985;DHT22;21190;58.750;17.004;2023-02-23T04:42:19;-0.10;99.90
34985;DHT22;21190;58.750;17.004;2023-02-23T04:44:46;0.00;99.90
34985;DHT22;21190;58.750;17.004;2023-02-23T04:47:14;0.00;99.90
34985;DHT22;21190;58.750;17.004;2023-02-23T04:49:42;0.00;99.90
34985;DHT22;21190;58.750;17.004;2023-02-23T04:52:09;0.00;99.90
34985;DHT22;21190;58.750;17.004;2023-02-23T04:54:37;0.00;99.90
34985;DHT22;21190;58.750;17.004;2023-02-23T04:57:05;0.10;99.90
34985;DHT22;21190;58.750;17.004;2023-02-23T04:59:32;0.10;99.90
34985;DHT22;21190;58.750;17.004;2023-02-23T05:02:00;0.10;99.90
34985;DHT22;21190;58.750;17.004;2023-02-23T05:04:28;0.10;99.90
34985;DHT22;21190;58.750;17.004;2023-02-23T05:06:55;0.10;99.90
34985;DHT22;21190;58.750;17.004;2023-02-23T05:09:22;0.10;99.90
34985;DHT22;21190;58.750;17.004;2023-02-23T05:11:49;0.20;99.90
34985;DHT22;21190;58.750;17.004;2023-02-23T05:14:16;0.20;99.90
34985;DHT22;21190;58.750;17.004;2023-02-23T05:16:43;0.20;99.90
34985;DHT22;21190;58.750;17.004;2023-02-23T05:19:10;0.20;99.90
34985;DHT22;21190;58.750;17.004;2023-02-23T05:21:37;0.20;99.90
34985;DHT22;21190;58.750;17.004;2023-02-23T05:24:05;0.20;99.90
34985;DHT22;21190;58.750;17.004;2023-02-23T05:26:32;0.20;99.90
34985;DHT22;21190;58.750;17.004;2023-02-23T05:28:59;0.20;99.90
34985;DHT22;21190;58.750;17.004;2023-02-23T05:31:27;0.20;99.90
34985;DHT22;21190;58.750;17.004;2023-02-23T05:33:54;0.30;99.90
34985;DHT22;21190;58.750;17.004;2023-02-23T05:36:21;0.30;99.90
34985;DHT22;21190;58.750;17.004;2023-02-23T05:38:48;0.30;99.90
34985;DHT22;21190;58.750;17.004;2023-02-23T05:41:18;0.30;99.90
34985;DHT22;21190;58.750;17.004;2023-02-23T05:43:46;0.30;99.90
34985;DHT22;21190;58.750;17.004;2023-02-23T05:46:19;0.30;99.90
34985;DHT22;21190;58.750;17.004;2023-02-23T05:48:47;0.40;99.90
34985;DHT22;21190;58.750;17.004;2023-02-23T05:51:15;0.30;99.90
34985;DHT22;21190;58.750;17.004;2023-02-23T05:53:44;0.20;99.90
34985;DHT22;21190;58.750;17.004;2023-02-23T05:56:14;0.20;99.90
34985;DHT22;21190;58.750;17.004;2023-02-23T05:58:50;0.20;99.90
34985;DHT22;21190;58.750;17.004;2023-02-23T06:01:18;0.30;99.90
34985;DHT22;21190;58.750;17.004;2023-02-23T06:03:47;0.30;99.90
34985;DHT22;21190;58.750;17.004;2023-02-23T06:06:14;0.30;99.90
34985;DHT22;21190;58.750;17.004;2023-02-23T06:08:41;0.30;99.90
34985;DHT22;21190;58.750;17.004;2023-02-23T06:11:09;0.30;99.90
34985;DHT22;21190;58.750;17.004;2023-02-23T06:13:36;0.30;99.90
34985;DHT22;21190;58.750;17.004;2023-02-23T06:16:04;0.30;99.90
34985;DHT22;21190;58.750;17.004;2023-02-23T06:18:31;0.30;99.90
34985;DHT22;21190;58.750;17.004;2023-02-23T06:20:59;0.30;99.90
34985;DHT22;21190;58.750;17.004;2023-02-23T06:23:27;0.30;99.90
34985;DHT22;21190;58.750;17.004;2023-02-23T06:25:55;0.30;99.90
34985;DHT22;21190;58.750;17.004;2023-02-23T06:28:22;0.30;99.90
34985;DHT22;21190;58.750;17.004;2023-02-23T06:30:53;0.30;99.90
34985;DHT22;21190;58.750;17.004;2023-02-23T06:33:21;0.30;99.90
34985;DHT22;21190;58.750;17.004;2023-02-23T06:35:48;0.40;99.90
34985;DHT22;21190;58.750;17.004;2023-02-23T06:38:15;0.30;99.90
34985;DHT22;21190;58.750;17.004;2023-02-23T06:40:42;0.30;99.90
34985;DHT22;21190;58.750;17.004;2023-02-23T06:43:09;0.30;99.90
34985;DHT22;21190;58.750;17.004;2023-02-23T06:45:37;0.30;99.90
34985;DHT22;21190;58.750;17.004;2023-02-23T06:48:04;0.40;99.90
34985;DHT22;21190;58.750;17.004;2023-02-23T06:50:31;0.40;99.90
34985;DHT22;21190;58.750;17.004;2023-02-23T06:52:59;0.40;99.90
34985;DHT22;21190;58.750;17.004;2023-02-23T06:55:26;0.40;99.90
34985;DHT22;21190;58.750;17.004;2023-02-23T06:57:53;0.50;99.90
34985;DHT22;21190;58.750;17.004;2023-02-23T07:00:20;0.50;99.90
34985;DHT22;21190;58.750;17.004;2023-02-23T07:02:47;0.40;99.90
34985;DHT22;21190;58.750;17.004;2023-02-23T07:05:14;0.40;99.90
34985;DHT22;21190;58.750;17.004;2023-02-23T07:07:42;0.50;99.90
34985;DHT22;21190;58.750;17.004;2023-02-23T07:10:09;0.50;99.90
34985;DHT22;21190;58.750;17.004;2023-02-23T07:12:36;0.60;99.90
34985;DHT22;21190;58.750;17.004;2023-02-23T07:15:04;0.60;99.90
34985;DHT22;21190;58.750;17.004;2023-02-23T07:17:31;0.70;99.90
34985;DHT22;21190;58.750;17.004;2023-02-23T07:19:58;0.60;99.90
34985;DHT22;21190;58.750;17.004;2023-02-23T07:22:25;0.60;99.90
34985;DHT22;21190;58.750;17.004;2023-02-23T07:24:56;0.60;99.90
34985;DHT22;21190;58.750;17.004;2023-02-23T07:27:23;0.70;99.90
34985;DHT22;21190;58.750;17.004;2023-02-23T07:29:50;0.70;99.90
34985;DHT22;21190;58.750;17.004;2023-02-23T07:32:17;0.70;99.90
34985;DHT22;21190;58.750;17.004;2023-02-23T07:34:45;0.70;99.90
34985;DHT22;21190;58.750;17.004;2023-02-23T07:37:13;0.70;99.90
34985;DHT22;21190;58.750;17.004;2023-02-23T07:39:41;0.70;99.90
34985;DHT22;21190;58.750;17.004;2023-02-23T07:42:08;0.80;99.90
34985;DHT22;21190;58.750;17.004;2023-02-23T07:44:35;0.80;99.90
34985;DHT22;21190;58.750;17.004;2023-02-23T07:47:02;0.80;99.90
34985;DHT22;21190;58.750;17.004;2023-02-23T07:49:29;0.70;99.90
34985;DHT22;21190;58.750;17.004;2023-02-23T07:51:56;0.80;99.90
34985;DHT22;21190;58.750;17.004;2023-02-23T07:54:24;0.80;99.90
34985;DHT22;21190;58.750;17.004;2023-02-23T07:56:52;0.80;99.90
34985;DHT22;21190;58.750;17.004;2023-02-23T07:59:19;0.90;99.90
34985;DHT22;21190;58.750;17.004;2023-02-23T08:01:46;0.80;99.90
34985;DHT22;21190;58.750;17.004;2023-02-23T08:04:13;0.80;99.90
34985;DHT22;21190;58.750;17.004;2023-02-23T08:06:40;0.80;99.90
34985;DHT22;21190;58.750;17.004;2023-02-23T08:09:07;0.70;99.90
34985;DHT22;21190;58.750;17.004;2023-02-23T08:11:34;0.80;99.90
34985;DHT22;21190;58.750;17.004;2023-02-23T08:14:02;0.80;99.90
34985;DHT22;21190;58.750;17.004;2023-02-23T08:16:31;0.90;99.90
34985;DHT22;21190;58.750;17.004;2023-02-23T08:18:59;0.80;99.90
34985;DHT22;21190;58.750;17.004;2023-02-23T08:21:27;0.80;99.90
34985;DHT22;21190;58.750;17.004;2023-02-23T08:23:58;0.80;99.90
34985;DHT22;21190;58.750;17.004;2023-02-23T08:26:25;0.90;99.90
34985;DHT22;21190;58.750;17.004;2023-02-23T08:28:53;0.80;99.90
34985;DHT22;21190;58.750;17.004;2023-02-23T08:31:20;0.80;99.90
34985;DHT22;21190;58.750;17.004;2023-02-23T08:33:50;0.90;99.90
34985;DHT22;21190;58.750;17.004;2023-02-23T08:36:18;0.90;99.90
34985;DHT22;21190;58.750;17.004;2023-02-23T08:38:46;0.90;99.90
34985;DHT22;21190;58.750;17.004;2023-02-23T08:41:14;0.90;99.90
34985;DHT22;21190;58.750;17.004;2023-02-23T08:43:41;0.90;99.90
34985;DHT22;21190;58.750;17.004;2023-02-23T08:46:10;0.90;99.90
34985;DHT22;21190;58.750;17.004;2023-02-23T08:48:37;0.90;99.90
34985;DHT22;21190;58.750;17.004;2023-02-23T08:51:07;0.90;99.90
34985;DHT22;21190;58.750;17.004;2023-02-23T08:53:35;0.90;99.90
34985;DHT22;21190;58.750;17.004;2023-02-23T08:56:04;0.90;99.90
34985;DHT22;21190;58.750;17.004;2023-02-23T08:58:34;0.90;99.90
34985;DHT22;21190;58.750;17.004;2023-02-23T09:01:02;0.90;99.90
34985;DHT22;21190;58.750;17.004;2023-02-23T09:03:29;0.90;99.90
34985;DHT22;21190;58.750;17.004;2023-02-23T09:06:04;0.90;99.90
34985;DHT22;21190;58.750;17.004;2023-02-23T09:08:32;0.90;99.90
34985;DHT22;21190;58.750;17.004;2023-02-23T09:10:59;1.00;99.90
34985;DHT22;21190;58.750;17.004;2023-02-23T09:13:26;1.00;99.90
34985;DHT22;21190;58.750;17.004;2023-02-23T09:15:53;0.90;99.90
34985;DHT22;21190;58.750;17.004;2023-02-23T09:18:20;0.90;99.90
34985;DHT22;21190;58.750;17.004;2023-02-23T09:20:50;1.00;99.90
34985;DHT22;21190;58.750;17.004;2023-02-23T09:23:17;1.00;99.90
34985;DHT22;21190;58.750;17.004;2023-02-23T09:25:45;1.00;99.90
34985;DHT22;21190;58.750;17.004;2023-02-23T09:28:18;1.10;99.90
34985;DHT22;21190;58.750;17.004;2023-02-23T09:30:45;1.10;99.90
34985;DHT22;21190;58.750;17.004;2023-02-23T09:33:13;1.10;99.90
34985;DHT22;21190;58.750;17.004;2023-02-23T09:35:40;1.10;99.90
34985;DHT22;21190;58.750;17.004;2023-02-23T09:38:08;1.10;99.90
34985;DHT22;21190;58.750;17.004;2023-02-23T09:40:55;1.10;99.90
34985;DHT22;21190;58.750;17.004;2023-02-23T09:43:36;1.00;99.90
34985;DHT22;21190;58.750;17.004;2023-02-23T09:48:56;1.00;99.90
34985;DHT22;21190;58.750;17.004;2023-02-23T09:51:24;0.90;99.90
34985;DHT22;21190;58.750;17.004;2023-02-23T09:53:57;1.00;99.90
34985;DHT22;21190;58.750;17.004;2023-02-23T09:56:29;1.00;99.90
34985;DHT22;21190;58.750;17.004;2023-02-23T09:59:00;1.00;99.90
34985;DHT22;21190;58.750;17.004;2023-02-23T10:04:35;1.10;99.90
34985;DHT22;21190;58.750;17.004;2023-02-23T10:15:43;1.20;99.90
34985;DHT22;21190;58.750;17.004;2023-02-23T10:21:25;1.20;99.90
34985;DHT22;21190;58.750;17.004;2023-02-23T10:27:14;1.20;99.90
34985;DHT22;21190;58.750;17.004;2023-02-23T10:29:53;1.30;99.90
34985;DHT22;21190;58.750;17.004;2023-02-23T10:32:54;1.30;99.90
34985;DHT22;21190;58.750;17.004;2023-02-23T10:35:25;1.30;99.90
34985;DHT22;21190;58.750;17.004;2023-02-23T10:37:54;1.30;99.90
34985;DHT22;21190;58.750;17.004;2023-02-23T10:40:26;1.40;99.90
34985;DHT22;21190;58.750;17.004;2023-02-23T10:42:56;1.30;99.90
34985;DHT22;21190;58.750;17.004;2023-02-23T10:45:25;1.20;99.90
34985;DHT22;21190;58.750;17.004;2023-02-23T10:50:36;1.20;99.90
34985;DHT22;21190;58.750;17.004;2023-02-23T10:53:12;1.20;99.90
34985;DHT22;21190;58.750;17.004;2023-02-23T10:55:43;1.20;99.90
34985;DHT22;21190;58.750;17.004;2023-02-23T10:58:14;1.20;99.90
34985;DHT22;21190;58.750;17.004;2023-02-23T11:01:00;1.20;99.90
34985;DHT22;21190;58.750;17.004;2023-02-23T11:03:48;1.20;99.90
34985;DHT22;21190;58.750;17.004;2023-02-23T11:06:30;1.20;99.90
34985;DHT22;21190;58.750;17.004;2023-02-23T11:08:58;1.20;99.90
34985;DHT22;21190;58.750;17.004;2023-02-23T11:11:27;1.20;99.90
34985;DHT22;21190;58.750;17.004;2023-02-23T11:13:56;1.30;99.90
34985;DHT22;21190;58.750;17.004;2023-02-23T11:16:27;1.40;99.90
34985;DHT22;21190;58.750;17.004;2023-02-23T11:18:58;1.50;99.90
34985;DHT22;21190;58.750;17.004;2023-02-23T11:21:33;1.40;99.90
34985;DHT22;21190;58.750;17.004;2023-02-23T11:24:15;1.50;99.90
34985;DHT22;21190;58.750;17.004;2023-02-23T11:26:47;1.50;99.90
34985;DHT22;21190;58.750;17.004;2023-02-23T11:29:24;1.50;99.90
34985;DHT22;21190;58.750;17.004;2023-02-23T11:31:55;1.50;99.90
34985;DHT22;21190;58.750;17.004;2023-02-23T11:34:29;1.50;99.90
34985;DHT22;21190;58.750;17.004;2023-02-23T11:37:05;1.50;99.90
34985;DHT22;21190;58.750;17.004;2023-02-23T11:39:32;1.50;99.90
34985;DHT22;21190;58.750;17.004;2023-02-23T11:42:15;1.50;99.90
34985;DHT22;21190;58.750;17.004;2023-02-23T11:44:42;1.60;99.90
34985;DHT22;21190;58.750;17.004;2023-02-23T11:47:17;1.50;99.90
34985;DHT22;21190;58.750;17.004;2023-02-23T11:49:46;1.50;99.90
34985;DHT22;21190;58.750;17.004;2023-02-23T11:52:16;1.40;99.90
34985;DHT22;21190;58.750;17.004;2023-02-23T11:54:54;1.40;99.90
34985;DHT22;21190;58.750;17.004;2023-02-23T11:57:24;1.40;99.90
34985;DHT22;21190;58.750;17.004;2023-02-23T11:59:52;1.40;99.90
34985;DHT22;21190;58.750;17.004;2023-02-23T12:02:25;1.40;99.90
34985;DHT22;21190;58.750;17.004;2023-02-23T12:08:14;1.40;99.90
34985;DHT22;21190;58.750;17.004;2023-02-23T12:10:50;1.40;99.90
34985;DHT22;21190;58.750;17.004;2023-02-23T12:13:26;1.40;99.90
34985;DHT22;21190;58.750;17.004;2023-02-23T12:16:04;1.40;99.90
34985;DHT22;21190;58.750;17.004;2023-02-23T12:18:47;1.50;99.90
34985;DHT22;21190;58.750;17.004;2023-02-23T12:24:17;1.40;99.90
34985;DHT22;21190;58.750;17.004;2023-02-23T12:26:50;1.40;99.90
34985;DHT22;21190;58.750;17.004;2023-02-23T12:32:10;1.50;99.90
34985;DHT22;21190;58.750;17.004;2023-02-23T12:40:06;1.40;99.90
34985;DHT22;21190;58.750;17.004;2023-02-23T12:42:46;1.40;99.90
34985;DHT22;21190;58.750;17.004;2023-02-23T12:45:32;1.40;99.90
34985;DHT22;21190;58.750;17.004;2023-02-23T12:48:14;1.40;99.90
34985;DHT22;21190;58.750;17.004;2023-02-23T12:50:53;1.50;99.90
34985;DHT22;21190;58.750;17.004;2023-02-23T12:53:37;1.50;99.90
34985;DHT22;21190;58.750;17.004;2023-02-23T13:01:58;1.50;99.90
34985;DHT22;21190;58.750;17.004;2023-02-23T13:04:49;1.50;99.90
34985;DHT22;21190;58.750;17.004;2023-02-23T13:10:21;1.40;99.90
34985;DHT22;21190;58.750;17.004;2023-02-23T13:13:08;1.40;99.90
34985;DHT22;21190;58.750;17.004;2023-02-23T13:20:40;1.30;99.90
34985;DHT22;21190;58.750;17.004;2023-02-23T13:26:21;1.30;99.90
34985;DHT22;21190;58.750;17.004;2023-02-23T13:29:04;1.30;99.90
34985;DHT22;21190;58.750;17.004;2023-02-23T13:31:35;1.30;99.90
34985;DHT22;21190;58.750;17.004;2023-02-23T13:34:05;1.20;99.90
34985;DHT22;21190;58.750;17.004;2023-02-23T13:36:33;1.20;99.90
34985;DHT22;21190;58.750;17.004;2023-02-23T13:42:23;1.20;99.90
34985;DHT22;21190;58.750;17.004;2023-02-23T13:48:29;1.20;99.90
34985;DHT22;21190;58.750;17.004;2023-02-23T13:54:24;1.20;99.90
34985;DHT22;21190;58.750;17.004;2023-02-23T13:56:59;1.30;99.90
34985;DHT22;21190;58.750;17.004;2023-02-23T13:59:29;1.30;99.90
34985;DHT22;21190;58.750;17.004;2023-02-23T14:01:58;1.30;99.90
34985;DHT22;21190;58.750;17.004;2023-02-23T14:04:36;1.30;99.90
34985;DHT22;21190;58.750;17.004;2023-02-23T14:10:35;1.40;99.90
34985;DHT22;21190;58.750;17.004;2023-02-23T14:13:26;1.40;99.90
34985;DHT22;21190;58.750;17.004;2023-02-23T14:16:13;1.40;99.90
34985;DHT22;21190;58.750;17.004;2023-02-23T14:19:04;1.50;99.90
34985;DHT22;21190;58.750;17.004;2023-02-23T14:21:42;1.50;99.90
34985;DHT22;21190;58.750;17.004;2023-02-23T14:24:23;1.50;99.90
34985;DHT22;21190;58.750;17.004;2023-02-23T14:29:39;1.40;99.90
34985;DHT22;21190;58.750;17.004;2023-02-23T14:32:26;1.50;99.90
34985;DHT22;21190;58.750;17.004;2023-02-23T14:35:00;1.50;99.90
34985;DHT22;21190;58.750;17.004;2023-02-23T14:37:39;1.60;99.90
34985;DHT22;21190;58.750;17.004;2023-02-23T14:40:38;1.60;99.90
34985;DHT22;21190;58.750;17.004;2023-02-23T14:46:26;1.60;99.90
34985;DHT22;21190;58.750;17.004;2023-02-23T14:51:36;1.60;99.90
34985;DHT22;21190;58.750;17.004;2023-02-23T14:54:34;1.60;99.90
34985;DHT22;21190;58.750;17.004;2023-02-23T14:57:02;1.60;99.90
34985;DHT22;21190;58.750;17.004;2023-02-23T14:59:40;1.50;99.90
34985;DHT22;21190;58.750;17.004;2023-02-23T15:04:36;1.50;99.90
34985;DHT22;21190;58.750;17.004;2023-02-23T15:07:14;1.50;99.90
34985;DHT22;21190;58.750;17.004;2023-02-23T15:09:45;1.50;99.90
34985;DHT22;21190;58.750;17.004;2023-02-23T15:12:23;1.40;99.90
34985;DHT22;21190;58.750;17.004;2023-02-23T15:14:59;1.40;99.90
34985;DHT22;21190;58.750;17.004;2023-02-23T15:17:29;1.40;99.90
34985;DHT22;21190;58.750;17.004;2023-02-23T15:20:04;1.50;99.90
34985;DHT22;21190;58.750;17.004;2023-02-23T15:22:47;1.50;99.90
34985;DHT22;21190;58.750;17.004;2023-02-23T15:25:20;1.40;99.90
34985;DHT22;21190;58.750;17.004;2023-02-23T15:27:47;1.40;99.90
34985;DHT22;21190;58.750;17.004;2023-02-23T15:30:27;1.50;99.90
34985;DHT22;21190;58.750;17.004;2023-02-23T15:33:05;1.50;99.90
34985;DHT22;21190;58.750;17.004;2023-02-23T15:35:41;1.50;99.90
34985;DHT22;21190;58.750;17.004;2023-02-23T15:38:15;1.50;99.90
34985;DHT22;21190;58.750;17.004;2023-02-23T15:41:11;1.50;99.90
34985;DHT22;21190;58.750;17.004;2023-02-23T15:43:41;1.60;99.90
34985;DHT22;21190;58.750;17.004;2023-02-23T15:46:19;1.70;99.90
34985;DHT22;21190;58.750;17.004;2023-02-23T15:48:50;1.70;99.90
34985;DHT22;21190;58.750;17.004;2023-02-23T15:51:40;1.70;99.90
34985;DHT22;21190;58.750;17.004;2023-02-23T15:57:01;1.60;99.90
34985;DHT22;21190;58.750;17.004;2023-02-23T15:59:36;1.60;99.90
34985;DHT22;21190;58.750;17.004;2023-02-23T16:02:16;1.60;99.90
34985;DHT22;21190;58.750;17.004;2023-02-23T16:04:46;1.60;99.90
34985;DHT22;21190;58.750;17.004;2023-02-23T16:07:21;1.60;99.90
34985;DHT22;21190;58.750;17.004;2023-02-23T16:10:05;1.60;99.90
34985;DHT22;21190;58.750;17.004;2023-02-23T16:12:46;1.60;99.90
34985;DHT22;21190;58.750;17.004;2023-02-23T16:17:52;1.60;99.90
34985;DHT22;21190;58.750;17.004;2023-02-23T16:20:33;1.60;99.90
34985;DHT22;21190;58.750;17.004;2023-02-23T16:23:22;1.50;99.90
34985;DHT22;21190;58.750;17.004;2023-02-23T16:26:05;1.50;99.90
34985;DHT22;21190;58.750;17.004;2023-02-23T16:28:42;1.60;99.90
34985;DHT22;21190;58.750;17.004;2023-02-23T16:31:10;1.60;99.90
34985;DHT22;21190;58.750;17.004;2023-02-23T16:33:54;1.60;99.90
34985;DHT22;21190;58.750;17.004;2023-02-23T16:36:36;1.50;99.90
34985;DHT22;21190;58.750;17.004;2023-02-23T16:39:10;1.60;99.90
34985;DHT22;21190;58.750;17.004;2023-02-23T16:41:37;1.60;99.90
34985;DHT22;21190;58.750;17.004;2023-02-23T16:44:05;1.60;99.90
34985;DHT22;21190;58.750;17.004;2023-02-23T16:49:19;1.60;99.90
34985;DHT22;21190;58.750;17.004;2023-02-23T16:51:50;1.50;99.90
34985;DHT22;21190;58.750;17.004;2023-02-23T16:54:17;1.50;99.90
34985;DHT22;21190;58.750;17.004;2023-02-23T16:56:45;1.40;99.90
34985;DHT22;21190;58.750;17.004;2023-02-23T16:59:15;1.40;99.90
34985;DHT22;21190;58.750;17.004;2023-02-23T17:01:43;1.40;99.90
34985;DHT22;21190;58.750;17.004;2023-02-23T17:04:19;1.40;99.90
34985;DHT22;21190;58.750;17.004;2023-02-23T17:06:46;1.30;99.90
34985;DHT22;21190;58.750;17.004;2023-02-23T17:09:24;1.30;99.90
34985;DHT22;21190;58.750;17.004;2023-02-23T17:11:51;1.30;99.90
34985;DHT22;21190;58.750;17.004;2023-02-23T17:14:23;1.40;99.90
34985;DHT22;21190;58.750;17.004;2023-02-23T17:16:50;1.50;99.90
34985;DHT22;21190;58.750;17.004;2023-02-23T17:19:17;1.50;99.90
34985;DHT22;21190;58.750;17.004;2023-02-23T17:21:45;1.40;99.90
34985;DHT22;21190;58.750;17.004;2023-02-23T17:24:12;1.40;99.90
34985;DHT22;21190;58.750;17.004;2023-02-23T17:26:39;1.40;99.90
34985;DHT22;21190;58.750;17.004;2023-02-23T17:29:07;1.50;99.90
34985;DHT22;21190;58.750;17.004;2023-02-23T17:31:35;1.50;99.90
34985;DHT22;21190;58.750;17.004;2023-02-23T17:34:04;1.60;99.90
34985;DHT22;21190;58.750;17.004;2023-02-23T17:36:31;1.60;99.90
34985;DHT22;21190;58.750;17.004;2023-02-23T17:38:58;1.60;99.90
34985;DHT22;21190;58.750;17.004;2023-02-23T17:41:25;1.60;99.90
34985;DHT22;21190;58.750;17.004;2023-02-23T17:43:53;1.60;99.90
34985;DHT22;21190;58.750;17.004;2023-02-23T17:46:20;1.50;99.90
34985;DHT22;21190;58.750;17.004;2023-02-23T17:48:49;1.50;99.90
34985;DHT22;21190;58.750;17.004;2023-02-23T17:51:16;1.40;99.90
34985;DHT22;21190;58.750;17.004;2023-02-23T17:53:45;1.40;99.90
34985;DHT22;21190;58.750;17.004;2023-02-23T17:56:13;1.30;99.90
34985;DHT22;21190;58.750;17.004;2023-02-23T17:58:41;1.40;99.90
34985;DHT22;21190;58.750;17.004;2023-02-23T18:01:08;1.40;99.90
34985;DHT22;21190;58.750;17.004;2023-02-23T18:03:36;1.40;99.90
34985;DHT22;21190;58.750;17.004;2023-02-23T18:06:06;1.30;99.90
34985;DHT22;21190;58.750;17.004;2023-02-23T18:08:34;1.30;99.90